Huvudsida
METAR-TAF:

METAR-TAF

Flygplatser :

Sandefjords flygplats. Torp

Sandefjords, Norge

latitud: 59-12N, longitud: 010-16E, höjd: 8 m

Aktuellt väderrapport

Denna rapport gjordes för 18 minuter sedan, klockan 05:50 UTC
Vind 17 kt från väst/sydväst
Temperatur 10°C
Fuktighet 53%
Tryck 992 hPa
Sikt 10 km eller mer
Inga moln under 1 500 m eller inga cumulonimbus

METAR: ENTO 220550Z 25017KT CAVOK 10/01 Q0992

Tid: 08:08 (06:08 UTC)

Väderprognos

Prognos gäller från 22 kl. 06 UTC till 23 kl. 06 UTC
Vind 15 kt från väst/sydväst
Sikt 10 km eller mer
Inga moln under 1 500 m eller inga cumulonimbus
Temporärt
från 22 kl. 06 UTC till 22 kl. 18 UTC
Vind 18 kt från väst i byarna ända upp till 28 kt

TAF: ENTO 2206/2306 24015KT CAVOK TEMPO 2206/2218 26018G28KT

Aktuella väderrapporter och prognoser från 4000 flygplatser (METAR- och TAF-rapporter).

De tillgängliga stationerna syns som gula och röda prickar på kartan.

För musen över prickarna för att se namnen på stationerna.

Klicka sedan för att få väderrapporter och prognoser.

För att ändra kartan: Klicka på de gröna knapparna med ett svart kors på för att zooma in; den gröna knappen med ett streck på för att zooma ut; eller på de gröna pilarna för angränsande kartor.


METAR-TAF: